sensor_id;sensor_type;location;lat;lon;timestamp;P1;durP1;ratioP1;P2;durP2;ratioP2
29030;SDS011;16122;50.236;11.734;2022-12-18T00:03:42;12.20;;;9.60;;
29030;SDS011;16122;50.236;11.734;2022-12-18T00:06:09;13.87;;;10.90;;
29030;SDS011;16122;50.236;11.734;2022-12-18T00:08:35;13.17;;;10.80;;
29030;SDS011;16122;50.236;11.734;2022-12-18T00:11:04;12.53;;;10.00;;
29030;SDS011;16122;50.236;11.734;2022-12-18T00:13:31;12.23;;;9.67;;
29030;SDS011;16122;50.236;11.734;2022-12-18T00:16:04;10.00;;;9.00;;
29030;SDS011;16122;50.236;11.734;2022-12-18T00:18:32;14.10;;;10.40;;
29030;SDS011;16122;50.236;11.734;2022-12-18T00:20:59;12.00;;;9.10;;
29030;SDS011;16122;50.236;11.734;2022-12-18T00:23:26;13.27;;;9.87;;
29030;SDS011;16122;50.236;11.734;2022-12-18T00:25:53;11.40;;;10.20;;
29030;SDS011;16122;50.236;11.734;2022-12-18T00:28:19;11.73;;;9.57;;
29030;SDS011;16122;50.236;11.734;2022-12-18T00:30:45;9.70;;;8.57;;
29030;SDS011;16122;50.236;11.734;2022-12-18T00:33:11;12.10;;;9.30;;
29030;SDS011;16122;50.236;11.734;2022-12-18T00:35:37;10.70;;;8.80;;
29030;SDS011;16122;50.236;11.734;2022-12-18T00:38:03;11.50;;;9.10;;
29030;SDS011;16122;50.236;11.734;2022-12-18T00:40:30;13.23;;;8.50;;
29030;SDS011;16122;50.236;11.734;2022-12-18T00:42:56;9.70;;;7.60;;
29030;SDS011;16122;50.236;11.734;2022-12-18T00:45:27;10.37;;;8.77;;
29030;SDS011;16122;50.236;11.734;2022-12-18T00:47:54;9.17;;;7.77;;
29030;SDS011;16122;50.236;11.734;2022-12-18T00:50:20;11.13;;;8.07;;
29030;SDS011;16122;50.236;11.734;2022-12-18T00:52:48;10.63;;;8.30;;
29030;SDS011;16122;50.236;11.734;2022-12-18T00:55:14;9.03;;;8.13;;
29030;SDS011;16122;50.236;11.734;2022-12-18T00:57:40;9.17;;;8.17;;
29030;SDS011;16122;50.236;11.734;2022-12-18T01:00:07;8.90;;;8.00;;
29030;SDS011;16122;50.236;11.734;2022-12-18T01:02:36;12.30;;;9.10;;
29030;SDS011;16122;50.236;11.734;2022-12-18T01:05:01;10.47;;;8.10;;
29030;SDS011;16122;50.236;11.734;2022-12-18T01:07:27;8.93;;;8.00;;
29030;SDS011;16122;50.236;11.734;2022-12-18T01:09:53;8.83;;;7.80;;
29030;SDS011;16122;50.236;11.734;2022-12-18T01:12:19;9.23;;;8.33;;
29030;SDS011;16122;50.236;11.734;2022-12-18T01:14:45;11.50;;;8.70;;
29030;SDS011;16122;50.236;11.734;2022-12-18T01:17:11;11.53;;;9.23;;
29030;SDS011;16122;50.236;11.734;2022-12-18T01:19:37;14.83;;;9.17;;
29030;SDS011;16122;50.236;11.734;2022-12-18T01:22:03;10.17;;;8.50;;
29030;SDS011;16122;50.236;11.734;2022-12-18T01:24:28;12.90;;;10.00;;
29030;SDS011;16122;50.236;11.734;2022-12-18T01:26:56;11.37;;;8.90;;
29030;SDS011;16122;50.236;11.734;2022-12-18T01:29:22;12.30;;;9.50;;
29030;SDS011;16122;50.236;11.734;2022-12-18T01:31:48;13.07;;;9.47;;
29030;SDS011;16122;50.236;11.734;2022-12-18T01:34:14;13.13;;;9.30;;
29030;SDS011;16122;50.236;11.734;2022-12-18T01:36:40;11.40;;;9.57;;
29030;SDS011;16122;50.236;11.734;2022-12-18T01:39:07;15.93;;;9.73;;
29030;SDS011;16122;50.236;11.734;2022-12-18T01:41:37;13.83;;;10.33;;
29030;SDS011;16122;50.236;11.734;2022-12-18T01:47:17;16.20;;;10.93;;
29030;SDS011;16122;50.236;11.734;2022-12-18T01:49:49;14.27;;;10.10;;
29030;SDS011;16122;50.236;11.734;2022-12-18T01:52:15;14.00;;;10.10;;
29030;SDS011;16122;50.236;11.734;2022-12-18T01:54:42;13.70;;;10.07;;
29030;SDS011;16122;50.236;11.734;2022-12-18T01:57:08;14.90;;;10.47;;
29030;SDS011;16122;50.236;11.734;2022-12-18T01:59:34;13.50;;;10.33;;
29030;SDS011;16122;50.236;11.734;2022-12-18T02:02:02;16.47;;;11.00;;
29030;SDS011;16122;50.236;11.734;2022-12-18T02:04:28;15.57;;;10.97;;
29030;SDS011;16122;50.236;11.734;2022-12-18T02:09:39;13.27;;;10.30;;
29030;SDS011;16122;50.236;11.734;2022-12-18T02:15:07;14.27;;;10.20;;
29030;SDS011;16122;50.236;11.734;2022-12-18T02:17:51;13.70;;;9.40;;
29030;SDS011;16122;50.236;11.734;2022-12-18T02:20:31;13.30;;;9.17;;
29030;SDS011;16122;50.236;11.734;2022-12-18T02:23:06;11.80;;;8.60;;
29030;SDS011;16122;50.236;11.734;2022-12-18T02:28:36;12.07;;;7.97;;
29030;SDS011;16122;50.236;11.734;2022-12-18T02:31:10;14.93;;;8.03;;
29030;SDS011;16122;50.236;11.734;2022-12-18T02:33:40;11.30;;;8.80;;
29030;SDS011;16122;50.236;11.734;2022-12-18T02:36:08;11.57;;;8.60;;
29030;SDS011;16122;50.236;11.734;2022-12-18T02:38:37;9.50;;;7.80;;
29030;SDS011;16122;50.236;11.734;2022-12-18T02:41:10;10.60;;;8.10;;
29030;SDS011;16122;50.236;11.734;2022-12-18T02:43:38;11.10;;;8.17;;
29030;SDS011;16122;50.236;11.734;2022-12-18T02:46:24;9.33;;;7.30;;
29030;SDS011;16122;50.236;11.734;2022-12-18T02:48:51;10.73;;;8.20;;
29030;SDS011;16122;50.236;11.734;2022-12-18T02:51:24;9.70;;;7.27;;
29030;SDS011;16122;50.236;11.734;2022-12-18T02:54:02;10.40;;;7.73;;
29030;SDS011;16122;50.236;11.734;2022-12-18T02:56:41;9.93;;;7.60;;
29030;SDS011;16122;50.236;11.734;2022-12-18T02:59:23;10.33;;;7.60;;
29030;SDS011;16122;50.236;11.734;2022-12-18T03:02:02;11.70;;;8.80;;
29030;SDS011;16122;50.236;11.734;2022-12-18T03:07:40;11.20;;;8.60;;
29030;SDS011;16122;50.236;11.734;2022-12-18T03:10:13;12.57;;;8.97;;
29030;SDS011;16122;50.236;11.734;2022-12-18T03:12:47;11.30;;;7.83;;
29030;SDS011;16122;50.236;11.734;2022-12-18T03:15:20;13.93;;;8.20;;
29030;SDS011;16122;50.236;11.734;2022-12-18T03:17:59;10.93;;;8.03;;
29030;SDS011;16122;50.236;11.734;2022-12-18T03:20:30;13.20;;;8.80;;
29030;SDS011;16122;50.236;11.734;2022-12-18T03:23:10;11.10;;;7.43;;
29030;SDS011;16122;50.236;11.734;2022-12-18T03:25:39;12.30;;;7.63;;
29030;SDS011;16122;50.236;11.734;2022-12-18T03:28:09;15.33;;;8.57;;
29030;SDS011;16122;50.236;11.734;2022-12-18T03:30:39;9.37;;;7.90;;
29030;SDS011;16122;50.236;11.734;2022-12-18T03:33:08;9.83;;;8.77;;
29030;SDS011;16122;50.236;11.734;2022-12-18T03:35:41;10.33;;;8.00;;
29030;SDS011;16122;50.236;11.734;2022-12-18T03:38:10;11.97;;;7.90;;
29030;SDS011;16122;50.236;11.734;2022-12-18T03:46:07;11.23;;;7.77;;
29030;SDS011;16122;50.236;11.734;2022-12-18T03:48:46;9.00;;;7.60;;
29030;SDS011;16122;50.236;11.734;2022-12-18T03:51:40;10.17;;;7.53;;
29030;SDS011;16122;50.236;11.734;2022-12-18T03:54:10;11.33;;;7.67;;
29030;SDS011;16122;50.236;11.734;2022-12-18T03:56:44;10.17;;;7.63;;
29030;SDS011;16122;50.236;11.734;2022-12-18T03:59:13;10.10;;;7.67;;
29030;SDS011;16122;50.236;11.734;2022-12-18T04:01:43;9.00;;;6.83;;
29030;SDS011;16122;50.236;11.734;2022-12-18T04:04:13;11.20;;;8.03;;
29030;SDS011;16122;50.236;11.734;2022-12-18T04:06:42;9.30;;;6.63;;
29030;SDS011;16122;50.236;11.734;2022-12-18T04:09:11;9.53;;;7.23;;
29030;SDS011;16122;50.236;11.734;2022-12-18T04:11:42;10.57;;;7.13;;
29030;SDS011;16122;50.236;11.734;2022-12-18T04:14:10;9.73;;;6.83;;
29030;SDS011;16122;50.236;11.734;2022-12-18T04:16:37;10.13;;;6.73;;
29030;SDS011;16122;50.236;11.734;2022-12-18T04:19:05;7.50;;;6.43;;
29030;SDS011;16122;50.236;11.734;2022-12-18T04:21:37;9.97;;;7.17;;
29030;SDS011;16122;50.236;11.734;2022-12-18T04:24:03;6.90;;;5.90;;
29030;SDS011;16122;50.236;11.734;2022-12-18T04:26:32;8.00;;;6.23;;
29030;SDS011;16122;50.236;11.734;2022-12-18T04:29:21;8.10;;;6.43;;
29030;SDS011;16122;50.236;11.734;2022-12-18T04:31:47;9.13;;;7.07;;
29030;SDS011;16122;50.236;11.734;2022-12-18T04:34:14;10.20;;;7.60;;
29030;SDS011;16122;50.236;11.734;2022-12-18T04:36:46;6.73;;;6.00;;
29030;SDS011;16122;50.236;11.734;2022-12-18T04:39:13;7.60;;;6.17;;
29030;SDS011;16122;50.236;11.734;2022-12-18T04:41:43;7.40;;;5.97;;
29030;SDS011;16122;50.236;11.734;2022-12-18T04:44:09;7.87;;;5.63;;
29030;SDS011;16122;50.236;11.734;2022-12-18T04:46:35;8.60;;;6.13;;
29030;SDS011;16122;50.236;11.734;2022-12-18T04:49:01;8.37;;;6.70;;
29030;SDS011;16122;50.236;11.734;2022-12-18T04:51:27;8.37;;;6.83;;
29030;SDS011;16122;50.236;11.734;2022-12-18T04:53:53;8.10;;;6.40;;
29030;SDS011;16122;50.236;11.734;2022-12-18T04:56:19;8.80;;;6.77;;
29030;SDS011;16122;50.236;11.734;2022-12-18T04:58:45;7.37;;;6.10;;
29030;SDS011;16122;50.236;11.734;2022-12-18T05:01:11;7.97;;;5.97;;
29030;SDS011;16122;50.236;11.734;2022-12-18T05:03:39;8.27;;;6.83;;
29030;SDS011;16122;50.236;11.734;2022-12-18T05:06:05;9.80;;;6.37;;
29030;SDS011;16122;50.236;11.734;2022-12-18T05:08:32;8.33;;;6.10;;
29030;SDS011;16122;50.236;11.734;2022-12-18T05:11:01;9.83;;;7.10;;
29030;SDS011;16122;50.236;11.734;2022-12-18T05:13:32;6.77;;;6.07;;
29030;SDS011;16122;50.236;11.734;2022-12-18T05:15:58;7.57;;;5.87;;
29030;SDS011;16122;50.236;11.734;2022-12-18T05:18:25;9.03;;;6.10;;
29030;SDS011;16122;50.236;11.734;2022-12-18T05:20:51;7.27;;;6.33;;
29030;SDS011;16122;50.236;11.734;2022-12-18T05:23:18;8.70;;;6.07;;
29030;SDS011;16122;50.236;11.734;2022-12-18T05:25:50;7.70;;;5.93;;
29030;SDS011;16122;50.236;11.734;2022-12-18T05:28:16;7.73;;;5.43;;
29030;SDS011;16122;50.236;11.734;2022-12-18T05:30:42;7.07;;;5.67;;
29030;SDS011;16122;50.236;11.734;2022-12-18T05:33:19;7.23;;;6.00;;
29030;SDS011;16122;50.236;11.734;2022-12-18T05:35:52;6.63;;;5.20;;
29030;SDS011;16122;50.236;11.734;2022-12-18T05:38:20;8.93;;;6.47;;
29030;SDS011;16122;50.236;11.734;2022-12-18T05:40:47;6.90;;;5.30;;
29030;SDS011;16122;50.236;11.734;2022-12-18T05:43:13;7.27;;;5.60;;
29030;SDS011;16122;50.236;11.734;2022-12-18T05:45:40;6.93;;;5.63;;
29030;SDS011;16122;50.236;11.734;2022-12-18T05:48:06;6.47;;;5.47;;
29030;SDS011;16122;50.236;11.734;2022-12-18T05:50:39;6.07;;;4.93;;
29030;SDS011;16122;50.236;11.734;2022-12-18T05:53:07;6.33;;;4.87;;
29030;SDS011;16122;50.236;11.734;2022-12-18T05:55:33;6.80;;;5.73;;
29030;SDS011;16122;50.236;11.734;2022-12-18T05:58:00;6.93;;;5.30;;
29030;SDS011;16122;50.236;11.734;2022-12-18T06:00:27;5.63;;;4.93;;
29030;SDS011;16122;50.236;11.734;2022-12-18T06:02:53;6.83;;;5.50;;
29030;SDS011;16122;50.236;11.734;2022-12-18T06:05:19;6.13;;;5.20;;
29030;SDS011;16122;50.236;11.734;2022-12-18T06:07:45;6.77;;;5.53;;
29030;SDS011;16122;50.236;11.734;2022-12-18T06:10:11;6.33;;;4.87;;
29030;SDS011;16122;50.236;11.734;2022-12-18T06:12:37;6.30;;;5.07;;
29030;SDS011;16122;50.236;11.734;2022-12-18T06:15:03;6.60;;;4.33;;
29030;SDS011;16122;50.236;11.734;2022-12-18T06:17:30;6.80;;;4.90;;
29030;SDS011;16122;50.236;11.734;2022-12-18T06:19:56;6.73;;;4.70;;
29030;SDS011;16122;50.236;11.734;2022-12-18T06:22:22;4.93;;;4.40;;
29030;SDS011;16122;50.236;11.734;2022-12-18T06:24:48;6.17;;;4.10;;
29030;SDS011;16122;50.236;11.734;2022-12-18T06:27:14;5.63;;;4.03;;
29030;SDS011;16122;50.236;11.734;2022-12-18T06:29:40;6.23;;;4.80;;
29030;SDS011;16122;50.236;11.734;2022-12-18T06:32:07;6.67;;;4.57;;
29030;SDS011;16122;50.236;11.734;2022-12-18T06:34:33;6.23;;;4.10;;
29030;SDS011;16122;50.236;11.734;2022-12-18T06:36:59;4.70;;;3.93;;
29030;SDS011;16122;50.236;11.734;2022-12-18T06:39:28;7.67;;;4.93;;
29030;SDS011;16122;50.236;11.734;2022-12-18T06:41:54;5.40;;;4.00;;
29030;SDS011;16122;50.236;11.734;2022-12-18T06:44:21;5.50;;;4.77;;
29030;SDS011;16122;50.236;11.734;2022-12-18T06:46:47;4.93;;;4.40;;
29030;SDS011;16122;50.236;11.734;2022-12-18T06:49:13;4.23;;;3.83;;
29030;SDS011;16122;50.236;11.734;2022-12-18T06:51:39;4.73;;;3.83;;
29030;SDS011;16122;50.236;11.734;2022-12-18T06:54:05;4.73;;;3.57;;
29030;SDS011;16122;50.236;11.734;2022-12-18T06:56:30;5.67;;;4.17;;
29030;SDS011;16122;50.236;11.734;2022-12-18T06:58:56;5.73;;;4.67;;
29030;SDS011;16122;50.236;11.734;2022-12-18T07:01:22;5.73;;;4.40;;
29030;SDS011;16122;50.236;11.734;2022-12-18T07:03:51;4.90;;;4.10;;
29030;SDS011;16122;50.236;11.734;2022-12-18T07:06:21;6.20;;;4.60;;
29030;SDS011;16122;50.236;11.734;2022-12-18T07:08:49;4.97;;;3.70;;
29030;SDS011;16122;50.236;11.734;2022-12-18T07:11:16;5.43;;;4.20;;
29030;SDS011;16122;50.236;11.734;2022-12-18T07:13:43;4.17;;;3.77;;
29030;SDS011;16122;50.236;11.734;2022-12-18T07:16:19;4.70;;;3.80;;
29030;SDS011;16122;50.236;11.734;2022-12-18T07:18:46;5.97;;;3.73;;
29030;SDS011;16122;50.236;11.734;2022-12-18T07:21:13;5.60;;;4.50;;
29030;SDS011;16122;50.236;11.734;2022-12-18T07:23:40;6.90;;;3.97;;
29030;SDS011;16122;50.236;11.734;2022-12-18T07:26:07;4.20;;;3.60;;
29030;SDS011;16122;50.236;11.734;2022-12-18T07:28:35;4.67;;;4.27;;
29030;SDS011;16122;50.236;11.734;2022-12-18T07:31:03;4.20;;;3.63;;
29030;SDS011;16122;50.236;11.734;2022-12-18T07:33:33;3.77;;;3.40;;
29030;SDS011;16122;50.236;11.734;2022-12-18T07:36:00;4.87;;;3.90;;
29030;SDS011;16122;50.236;11.734;2022-12-18T07:38:26;4.43;;;3.80;;
29030;SDS011;16122;50.236;11.734;2022-12-18T07:40:52;5.07;;;4.27;;
29030;SDS011;16122;50.236;11.734;2022-12-18T07:43:18;4.53;;;3.87;;
29030;SDS011;16122;50.236;11.734;2022-12-18T07:45:44;4.77;;;3.60;;
29030;SDS011;16122;50.236;11.734;2022-12-18T07:48:10;4.40;;;3.70;;
29030;SDS011;16122;50.236;11.734;2022-12-18T07:50:36;4.30;;;3.37;;
29030;SDS011;16122;50.236;11.734;2022-12-18T07:53:02;5.30;;;4.63;;
29030;SDS011;16122;50.236;11.734;2022-12-18T07:55:29;4.43;;;3.33;;
29030;SDS011;16122;50.236;11.734;2022-12-18T07:57:55;4.70;;;4.07;;
29030;SDS011;16122;50.236;11.734;2022-12-18T08:00:21;4.70;;;3.90;;
29030;SDS011;16122;50.236;11.734;2022-12-18T08:02:47;5.80;;;3.93;;
29030;SDS011;16122;50.236;11.734;2022-12-18T08:05:13;3.73;;;3.07;;
29030;SDS011;16122;50.236;11.734;2022-12-18T08:07:39;4.53;;;4.13;;
29030;SDS011;16122;50.236;11.734;2022-12-18T08:10:05;3.50;;;3.20;;
29030;SDS011;16122;50.236;11.734;2022-12-18T08:12:32;5.37;;;4.03;;
29030;SDS011;16122;50.236;11.734;2022-12-18T08:14:57;5.30;;;4.33;;
29030;SDS011;16122;50.236;11.734;2022-12-18T08:17:23;4.23;;;3.83;;
29030;SDS011;16122;50.236;11.734;2022-12-18T08:19:49;7.00;;;5.00;;
29030;SDS011;16122;50.236;11.734;2022-12-18T08:22:15;7.20;;;5.17;;
29030;SDS011;16122;50.236;11.734;2022-12-18T08:24:41;4.57;;;4.07;;
29030;SDS011;16122;50.236;11.734;2022-12-18T08:27:07;5.37;;;4.20;;
29030;SDS011;16122;50.236;11.734;2022-12-18T08:29:32;6.17;;;4.50;;
29030;SDS011;16122;50.236;11.734;2022-12-18T08:31:58;5.27;;;4.37;;
29030;SDS011;16122;50.236;11.734;2022-12-18T08:34:24;5.10;;;3.97;;
29030;SDS011;16122;50.236;11.734;2022-12-18T08:36:50;5.93;;;4.20;;
29030;SDS011;16122;50.236;11.734;2022-12-18T08:39:16;4.67;;;4.00;;
29030;SDS011;16122;50.236;11.734;2022-12-18T08:41:42;5.10;;;4.57;;
29030;SDS011;16122;50.236;11.734;2022-12-18T08:44:08;4.03;;;3.47;;
29030;SDS011;16122;50.236;11.734;2022-12-18T08:46:52;5.33;;;4.20;;
29030;SDS011;16122;50.236;11.734;2022-12-18T08:49:17;5.27;;;3.80;;
29030;SDS011;16122;50.236;11.734;2022-12-18T08:51:43;5.50;;;4.40;;
29030;SDS011;16122;50.236;11.734;2022-12-18T08:54:12;5.10;;;4.00;;
29030;SDS011;16122;50.236;11.734;2022-12-18T08:56:38;6.00;;;4.00;;
29030;SDS011;16122;50.236;11.734;2022-12-18T08:59:04;5.33;;;4.40;;
29030;SDS011;16122;50.236;11.734;2022-12-18T09:01:30;6.10;;;4.10;;
29030;SDS011;16122;50.236;11.734;2022-12-18T09:03:56;4.80;;;4.10;;
29030;SDS011;16122;50.236;11.734;2022-12-18T09:06:22;5.93;;;4.20;;
29030;SDS011;16122;50.236;11.734;2022-12-18T09:08:49;5.30;;;4.80;;
29030;SDS011;16122;50.236;11.734;2022-12-18T09:11:25;5.50;;;4.50;;
29030;SDS011;16122;50.236;11.734;2022-12-18T09:13:53;5.17;;;4.30;;
29030;SDS011;16122;50.236;11.734;2022-12-18T09:16:19;7.20;;;4.90;;
29030;SDS011;16122;50.236;11.734;2022-12-18T09:18:47;8.30;;;5.40;;
29030;SDS011;16122;50.236;11.734;2022-12-18T09:21:15;5.83;;;4.90;;
29030;SDS011;16122;50.236;11.734;2022-12-18T09:23:54;6.37;;;5.40;;
29030;SDS011;16122;50.236;11.734;2022-12-18T09:26:21;6.73;;;5.33;;
29030;SDS011;16122;50.236;11.734;2022-12-18T09:28:47;6.43;;;5.07;;
29030;SDS011;16122;50.236;11.734;2022-12-18T09:31:14;7.60;;;5.57;;
29030;SDS011;16122;50.236;11.734;2022-12-18T09:33:41;8.43;;;5.87;;
29030;SDS011;16122;50.236;11.734;2022-12-18T09:36:07;6.27;;;5.67;;
29030;SDS011;16122;50.236;11.734;2022-12-18T09:38:35;6.07;;;5.47;;
29030;SDS011;16122;50.236;11.734;2022-12-18T09:49:29;7.40;;;5.63;;
29030;SDS011;16122;50.236;11.734;2022-12-18T09:52:00;6.90;;;5.60;;
29030;SDS011;16122;50.236;11.734;2022-12-18T09:54:43;7.10;;;6.17;;
29030;SDS011;16122;50.236;11.734;2022-12-18T09:57:14;6.90;;;5.43;;
29030;SDS011;16122;50.236;11.734;2022-12-18T09:59:44;6.40;;;5.73;;
29030;SDS011;16122;50.236;11.734;2022-12-18T10:02:17;7.50;;;6.17;;
29030;SDS011;16122;50.236;11.734;2022-12-18T10:04:50;6.90;;;5.83;;
29030;SDS011;16122;50.236;11.734;2022-12-18T10:07:30;7.90;;;5.40;;
29030;SDS011;16122;50.236;11.734;2022-12-18T10:22:08;7.10;;;5.50;;
29030;SDS011;16122;50.236;11.734;2022-12-18T10:26:55;6.30;;;5.17;;
29030;SDS011;16122;50.236;11.734;2022-12-18T10:29:33;6.57;;;4.90;;
29030;SDS011;16122;50.236;11.734;2022-12-18T10:31:59;6.10;;;5.20;;
29030;SDS011;16122;50.236;11.734;2022-12-18T10:34:25;7.63;;;5.37;;
29030;SDS011;16122;50.236;11.734;2022-12-18T10:36:51;6.63;;;5.13;;
29030;SDS011;16122;50.236;11.734;2022-12-18T10:39:20;5.63;;;5.03;;
29030;SDS011;16122;50.236;11.734;2022-12-18T10:41:48;5.80;;;5.10;;
29030;SDS011;16122;50.236;11.734;2022-12-18T10:46:50;6.33;;;4.80;;
29030;SDS011;16122;50.236;11.734;2022-12-18T10:49:22;4.43;;;4.03;;
29030;SDS011;16122;50.236;11.734;2022-12-18T10:52:15;4.60;;;4.20;;
29030;SDS011;16122;50.236;11.734;2022-12-18T10:54:50;5.50;;;4.50;;
29030;SDS011;16122;50.236;11.734;2022-12-18T10:59:53;6.97;;;4.80;;
29030;SDS011;16122;50.236;11.734;2022-12-18T11:02:54;5.87;;;4.40;;
29030;SDS011;16122;50.236;11.734;2022-12-18T11:05:29;5.00;;;4.53;;
29030;SDS011;16122;50.236;11.734;2022-12-18T11:07:57;5.10;;;4.60;;
29030;SDS011;16122;50.236;11.734;2022-12-18T11:15:56;5.27;;;3.90;;
29030;SDS011;16122;50.236;11.734;2022-12-18T11:18:31;5.63;;;4.43;;
29030;SDS011;16122;50.236;11.734;2022-12-18T11:21:07;5.73;;;3.70;;
29030;SDS011;16122;50.236;11.734;2022-12-18T11:23:35;4.83;;;4.20;;
29030;SDS011;16122;50.236;11.734;2022-12-18T11:26:03;4.90;;;4.40;;
29030;SDS011;16122;50.236;11.734;2022-12-18T11:28:35;3.87;;;3.17;;
29030;SDS011;16122;50.236;11.734;2022-12-18T11:36:20;6.40;;;3.87;;
29030;SDS011;16122;50.236;11.734;2022-12-18T11:38:48;4.93;;;4.23;;
29030;SDS011;16122;50.236;11.734;2022-12-18T11:47:42;4.23;;;3.80;;
29030;SDS011;16122;50.236;11.734;2022-12-18T11:50:16;4.60;;;3.77;;
29030;SDS011;16122;50.236;11.734;2022-12-18T11:52:48;4.13;;;3.70;;
29030;SDS011;16122;50.236;11.734;2022-12-18T12:00:46;4.30;;;3.40;;
29030;SDS011;16122;50.236;11.734;2022-12-18T12:03:24;4.20;;;3.77;;
29030;SDS011;16122;50.236;11.734;2022-12-18T12:11:46;4.10;;;3.73;;
29030;SDS011;16122;50.236;11.734;2022-12-18T12:17:36;4.67;;;3.50;;
29030;SDS011;16122;50.236;11.734;2022-12-18T12:20:32;5.00;;;3.90;;
29030;SDS011;16122;50.236;11.734;2022-12-18T12:26:20;3.83;;;3.43;;
29030;SDS011;16122;50.236;11.734;2022-12-18T12:39:43;5.17;;;3.40;;
29030;SDS011;16122;50.236;11.734;2022-12-18T12:42:14;4.17;;;3.67;;
29030;SDS011;16122;50.236;11.734;2022-12-18T12:45:20;5.87;;;3.50;;
29030;SDS011;16122;50.236;11.734;2022-12-18T12:47:53;4.73;;;3.07;;
29030;SDS011;16122;50.236;11.734;2022-12-18T12:50:21;4.53;;;3.77;;
29030;SDS011;16122;50.236;11.734;2022-12-18T12:52:52;3.80;;;3.07;;
29030;SDS011;16122;50.236;11.734;2022-12-18T12:55:21;5.23;;;3.47;;
29030;SDS011;16122;50.236;11.734;2022-12-18T13:00:21;6.33;;;3.40;;
29030;SDS011;16122;50.236;11.734;2022-12-18T13:08:22;5.57;;;3.43;;
29030;SDS011;16122;50.236;11.734;2022-12-18T13:10:52;4.90;;;3.97;;
29030;SDS011;16122;50.236;11.734;2022-12-18T13:13:52;3.70;;;3.03;;
29030;SDS011;16122;50.236;11.734;2022-12-18T13:16:21;4.00;;;3.60;;
29030;SDS011;16122;50.236;11.734;2022-12-18T13:18:52;5.00;;;3.93;;
29030;SDS011;16122;50.236;11.734;2022-12-18T13:21:28;4.90;;;3.50;;
29030;SDS011;16122;50.236;11.734;2022-12-18T13:23:56;4.70;;;3.63;;
29030;SDS011;16122;50.236;11.734;2022-12-18T13:26:39;9.87;;;4.27;;
29030;SDS011;16122;50.236;11.734;2022-12-18T13:29:05;7.73;;;3.87;;
29030;SDS011;16122;50.236;11.734;2022-12-18T13:34:24;10.23;;;4.53;;
29030;SDS011;16122;50.236;11.734;2022-12-18T13:36:52;11.67;;;5.27;;
29030;SDS011;16122;50.236;11.734;2022-12-18T13:42:31;15.70;;;5.77;;
29030;SDS011;16122;50.236;11.734;2022-12-18T13:44:54;13.27;;;5.27;;
29030;SDS011;16122;50.236;11.734;2022-12-18T13:49:56;11.17;;;4.93;;
29030;SDS011;16122;50.236;11.734;2022-12-18T13:52:24;9.87;;;5.27;;
29030;SDS011;16122;50.236;11.734;2022-12-18T13:54:53;15.23;;;5.40;;
29030;SDS011;16122;50.236;11.734;2022-12-18T13:57:34;15.73;;;5.50;;
29030;SDS011;16122;50.236;11.734;2022-12-18T14:02:55;12.40;;;5.90;;
29030;SDS011;16122;50.236;11.734;2022-12-18T14:05:26;12.23;;;5.30;;
29030;SDS011;16122;50.236;11.734;2022-12-18T14:08:00;16.30;;;5.53;;
29030;SDS011;16122;50.236;11.734;2022-12-18T14:10:41;15.30;;;6.57;;
29030;SDS011;16122;50.236;11.734;2022-12-18T14:13:10;12.80;;;5.67;;
29030;SDS011;16122;50.236;11.734;2022-12-18T14:15:41;10.03;;;5.60;;
29030;SDS011;16122;50.236;11.734;2022-12-18T14:21:06;12.63;;;6.10;;
29030;SDS011;16122;50.236;11.734;2022-12-18T14:23:41;37.50;;;15.97;;
29030;SDS011;16122;50.236;11.734;2022-12-18T14:28:48;70.23;;;24.27;;
29030;SDS011;16122;50.236;11.734;2022-12-18T14:31:32;63.20;;;21.60;;
29030;SDS011;16122;50.236;11.734;2022-12-18T14:33:58;42.37;;;18.83;;
29030;SDS011;16122;50.236;11.734;2022-12-18T14:36:27;51.07;;;18.43;;
29030;SDS011;16122;50.236;11.734;2022-12-18T14:38:54;38.63;;;15.83;;
29030;SDS011;16122;50.236;11.734;2022-12-18T14:41:21;44.23;;;16.13;;
29030;SDS011;16122;50.236;11.734;2022-12-18T14:43:49;40.60;;;15.00;;
29030;SDS011;16122;50.236;11.734;2022-12-18T14:49:00;33.70;;;12.90;;
29030;SDS011;16122;50.236;11.734;2022-12-18T14:51:55;31.87;;;13.50;;
29030;SDS011;16122;50.236;11.734;2022-12-18T14:54:25;30.50;;;10.80;;
29030;SDS011;16122;50.236;11.734;2022-12-18T14:57:04;32.00;;;12.63;;
29030;SDS011;16122;50.236;11.734;2022-12-18T14:59:45;24.50;;;10.60;;
29030;SDS011;16122;50.236;11.734;2022-12-18T15:05:05;22.20;;;10.30;;
29030;SDS011;16122;50.236;11.734;2022-12-18T15:07:53;20.53;;;9.00;;
29030;SDS011;16122;50.236;11.734;2022-12-18T15:10:24;21.60;;;10.57;;
29030;SDS011;16122;50.236;11.734;2022-12-18T15:18:02;24.90;;;9.60;;
29030;SDS011;16122;50.236;11.734;2022-12-18T15:23:15;17.43;;;7.83;;
29030;SDS011;16122;50.236;11.734;2022-12-18T15:26:03;18.67;;;8.73;;
29030;SDS011;16122;50.236;11.734;2022-12-18T15:33:39;19.57;;;8.70;;
29030;SDS011;16122;50.236;11.734;2022-12-18T15:36:12;18.90;;;8.17;;
29030;SDS011;16122;50.236;11.734;2022-12-18T15:38:39;18.20;;;7.40;;
29030;SDS011;16122;50.236;11.734;2022-12-18T15:41:05;14.93;;;8.13;;
29030;SDS011;16122;50.236;11.734;2022-12-18T15:43:31;24.50;;;7.40;;
29030;SDS011;16122;50.236;11.734;2022-12-18T15:46:10;17.60;;;6.83;;
29030;SDS011;16122;50.236;11.734;2022-12-18T15:48:39;12.43;;;6.90;;
29030;SDS011;16122;50.236;11.734;2022-12-18T15:51:49;14.07;;;7.20;;
29030;SDS011;16122;50.236;11.734;2022-12-18T15:54:01;14.83;;;7.10;;
29030;SDS011;16122;50.236;11.734;2022-12-18T15:56:31;20.30;;;7.57;;
29030;SDS011;16122;50.236;11.734;2022-12-18T15:59:17;12.20;;;6.87;;
29030;SDS011;16122;50.236;11.734;2022-12-18T16:01:47;12.93;;;6.63;;
29030;SDS011;16122;50.236;11.734;2022-12-18T16:04:16;14.20;;;7.00;;
29030;SDS011;16122;50.236;11.734;2022-12-18T16:06:45;16.07;;;7.37;;
29030;SDS011;16122;50.236;11.734;2022-12-18T16:09:11;14.37;;;7.03;;
29030;SDS011;16122;50.236;11.734;2022-12-18T16:11:37;16.27;;;7.57;;
29030;SDS011;16122;50.236;11.734;2022-12-18T16:16:47;11.70;;;6.50;;
29030;SDS011;16122;50.236;11.734;2022-12-18T16:19:15;12.77;;;6.93;;
29030;SDS011;16122;50.236;11.734;2022-12-18T16:21:42;16.63;;;6.80;;
29030;SDS011;16122;50.236;11.734;2022-12-18T16:24:12;11.90;;;5.93;;
29030;SDS011;16122;50.236;11.734;2022-12-18T16:26:41;12.20;;;5.40;;
29030;SDS011;16122;50.236;11.734;2022-12-18T16:29:07;14.77;;;7.60;;
29030;SDS011;16122;50.236;11.734;2022-12-18T16:31:34;12.40;;;6.77;;
29030;SDS011;16122;50.236;11.734;2022-12-18T16:36:49;13.00;;;5.27;;
29030;SDS011;16122;50.236;11.734;2022-12-18T16:39:15;11.57;;;5.70;;
29030;SDS011;16122;50.236;11.734;2022-12-18T16:41:41;16.43;;;6.80;;
29030;SDS011;16122;50.236;11.734;2022-12-18T16:44:08;10.10;;;5.97;;
29030;SDS011;16122;50.236;11.734;2022-12-18T16:46:35;9.13;;;5.30;;
29030;SDS011;16122;50.236;11.734;2022-12-18T16:49:02;10.57;;;5.80;;
29030;SDS011;16122;50.236;11.734;2022-12-18T16:51:28;8.63;;;5.63;;
29030;SDS011;16122;50.236;11.734;2022-12-18T16:53:55;11.53;;;5.53;;
29030;SDS011;16122;50.236;11.734;2022-12-18T16:56:21;11.30;;;5.20;;
29030;SDS011;16122;50.236;11.734;2022-12-18T16:58:54;8.37;;;4.90;;
29030;SDS011;16122;50.236;11.734;2022-12-18T17:01:22;10.77;;;5.60;;
29030;SDS011;16122;50.236;11.734;2022-12-18T17:03:52;13.07;;;5.40;;
29030;SDS011;16122;50.236;11.734;2022-12-18T17:06:22;11.97;;;5.73;;
29030;SDS011;16122;50.236;11.734;2022-12-18T17:11:25;7.73;;;4.50;;